createdAt,value
2022-10-01T00:00:04.343Z,12.23
2022-10-01T00:05:07.386Z,9.85
2022-10-01T00:10:11.070Z,10.18
2022-10-01T00:15:15.177Z,14.32
2022-10-01T00:20:17.741Z,11.85
2022-10-01T00:25:19.365Z,10.40
2022-10-01T00:30:21.666Z,9.32
2022-10-01T00:35:24.452Z,10.82
2022-10-01T00:40:26.178Z,11.52
2022-10-01T00:45:27.931Z,12.30
2022-10-01T00:50:33.196Z,11.60
2022-10-01T00:55:39.833Z,12.85
2022-10-01T01:00:42.955Z,11.85
2022-10-01T01:05:46.288Z,9.43
2022-10-01T01:11:01.734Z,10.13
2022-10-01T01:16:07.412Z,12.48
2022-10-01T01:21:14.993Z,12.50
2022-10-01T01:26:48.331Z,11.80
2022-10-01T01:31:50.294Z,14.38
2022-10-01T01:37:04.659Z,10.77
2022-10-01T01:42:13.533Z,12.98
2022-10-01T01:47:16.657Z,8.60
2022-10-01T01:52:18.543Z,10.65
2022-10-01T01:57:21.215Z,8.70
2022-10-01T02:02:28.415Z,10.43
2022-10-01T02:07:30.053Z,12.65
2022-10-01T02:13:01.740Z,13.02
2022-10-01T02:18:18.799Z,9.98
2022-10-01T02:23:28.765Z,8.75
2022-10-01T02:28:33.293Z,13.52
2022-10-01T02:33:37.432Z,8.13
2022-10-01T02:38:42.160Z,7.63
2022-10-01T02:44:05.217Z,7.78
2022-10-01T02:49:06.932Z,9.07
2022-10-01T02:54:17.816Z,8.80
2022-10-01T02:59:22.608Z,6.85
2022-10-01T03:04:24.241Z,6.30
2022-10-01T03:09:26.933Z,9.25
2022-10-01T03:14:28.965Z,9.77
2022-10-01T03:19:30.603Z,7.85
2022-10-01T03:24:32.378Z,9.02
2022-10-01T03:29:34.026Z,6.60
2022-10-01T03:34:35.735Z,7.60
2022-10-01T03:39:37.491Z,7.40
2022-10-01T03:44:39.122Z,7.95
2022-10-01T03:49:40.753Z,8.93
2022-10-01T03:54:42.389Z,6.47
2022-10-01T03:59:44.075Z,7.82
2022-10-01T04:04:45.672Z,7.30
2022-10-01T04:09:47.411Z,6.30
2022-10-01T04:14:49.035Z,7.60
2022-10-01T04:19:50.661Z,8.02
2022-10-01T04:24:53.823Z,6.32
2022-10-01T04:29:55.457Z,5.47
2022-10-01T04:34:57.449Z,5.20
2022-10-01T04:40:34.615Z,6.10
2022-10-01T04:45:37.470Z,5.72
2022-10-01T04:50:39.103Z,9.23
2022-10-01T04:55:40.731Z,9.35
2022-10-01T05:00:42.523Z,7.18
2022-10-01T05:05:44.552Z,4.60
2022-10-01T05:10:46.173Z,6.50
2022-10-01T05:15:52.352Z,7.18
2022-10-01T05:20:54.177Z,6.60
2022-10-01T05:25:55.839Z,7.63
2022-10-01T05:31:03.452Z,7.43
2022-10-01T05:36:07.056Z,9.07
2022-10-01T05:41:08.919Z,7.15
2022-10-01T05:46:10.630Z,5.13
2022-10-01T05:51:15.253Z,6.22
2022-10-01T05:56:16.877Z,4.97
2022-10-01T06:01:18.490Z,6.97
2022-10-01T06:06:24.943Z,8.75
2022-10-01T06:11:27.457Z,6.35
2022-10-01T06:16:29.363Z,4.10
2022-10-01T06:21:31.937Z,6.80
2022-10-01T06:26:33.829Z,4.60
2022-10-01T06:32:13.501Z,4.93
2022-10-01T06:37:15.291Z,4.78
2022-10-01T06:42:16.883Z,10.82
2022-10-01T06:47:18.530Z,3.72
2022-10-01T06:52:38.640Z,4.28
2022-10-01T06:57:40.291Z,3.03
2022-10-01T07:02:42.046Z,4.30
2022-10-01T07:07:48.398Z,1.90
2022-10-01T07:12:51.243Z,9.60
2022-10-01T07:17:52.971Z,2.38
2022-10-01T07:22:59.007Z,1.92
2022-10-01T07:28:04.557Z,2.35
2022-10-01T07:33:06.229Z,2.85
2022-10-01T07:38:08.190Z,2.83
2022-10-01T07:43:10.065Z,2.17
2022-10-01T07:48:11.734Z,1.20
2022-10-01T07:53:13.826Z,0.88
2022-10-01T07:58:15.526Z,1.30
2022-10-01T08:03:17.125Z,1.48
2022-10-01T08:08:18.779Z,1.38
2022-10-01T08:13:24.850Z,2.40
2022-10-01T08:18:26.683Z,3.95
2022-10-01T08:23:31.309Z,3.03
2022-10-01T08:28:35.757Z,2.33
2022-10-01T08:33:38.972Z,3.05
2022-10-01T08:38:47.383Z,1.40
2022-10-01T08:43:51.318Z,0.95
2022-10-01T08:49:06.922Z,1.67
2022-10-01T08:54:31.023Z,2.05
2022-10-01T08:59:40.875Z,8.05
2022-10-01T09:04:56.772Z,6.33
2022-10-01T09:10:13.848Z,5.82
2022-10-01T09:15:25.766Z,1.30
2022-10-01T09:20:39.543Z,2.22
2022-10-01T09:25:46.102Z,3.92
2022-10-01T09:31:12.008Z,2.35
2022-10-01T09:36:26.559Z,3.72
2022-10-01T09:41:31.633Z,4.32
2022-10-01T09:46:35.712Z,2.70
2022-10-01T09:51:43.013Z,2.97
2022-10-01T09:56:51.014Z,3.70
2022-10-01T10:02:51.158Z,2.42
2022-10-01T10:08:04.273Z,4.10
2022-10-01T10:13:35.167Z,3.75
2022-10-01T10:18:40.145Z,3.10
2022-10-01T10:23:51.493Z,3.55
2022-10-01T10:28:53.415Z,6.13
2022-10-01T10:34:32.645Z,4.97
2022-10-01T10:39:42.027Z,4.53
2022-10-01T10:44:49.525Z,3.80
2022-10-01T10:49:58.597Z,5.30
2022-10-01T10:55:25.169Z,5.30
2022-10-01T11:00:36.069Z,6.47
2022-10-01T11:05:42.086Z,7.20
2022-10-01T11:11:20.734Z,4.30
2022-10-01T11:16:33.375Z,2.90
2022-10-01T11:21:50.927Z,7.75
2022-10-01T11:26:58.027Z,5.03
2022-10-01T11:32:38.252Z,3.65
2022-10-01T11:38:14.070Z,2.75
2022-10-01T11:43:34.504Z,4.75
2022-10-01T11:48:48.588Z,2.10
2022-10-01T11:53:58.275Z,4.28
2022-10-01T11:59:10.746Z,4.23
2022-10-01T12:04:25.217Z,4.38
2022-10-01T12:09:39.367Z,4.07
2022-10-01T12:14:49.074Z,8.65
2022-10-01T12:19:54.309Z,8.88
2022-10-01T12:25:01.422Z,5.80
2022-10-01T12:30:18.949Z,4.18
2022-10-01T12:35:35.851Z,3.63
2022-10-01T12:41:04.368Z,5.53
2022-10-01T12:46:30.549Z,7.22
2022-10-01T12:51:53.139Z,7.65
2022-10-01T12:57:29.058Z,9.65
2022-10-01T13:03:11.549Z,6.88
2022-10-01T13:08:18.113Z,6.38
2022-10-01T13:13:33.605Z,8.48
2022-10-01T13:18:50.761Z,6.55
2022-10-01T13:24:33.484Z,5.65
2022-10-01T13:29:55.358Z,6.53
2022-10-01T13:35:39.511Z,6.18
2022-10-01T13:40:41.594Z,5.05
2022-10-01T13:45:51.565Z,7.70
2022-10-01T13:51:15.533Z,6.43
2022-10-01T13:56:32.973Z,5.53
2022-10-01T14:01:41.587Z,6.60
2022-10-01T14:06:58.410Z,5.30
2022-10-01T14:12:32.871Z,7.35
2022-10-01T14:17:38.011Z,6.05
2022-10-01T14:23:16.098Z,6.47
2022-10-01T14:28:38.041Z,4.13
2022-10-01T14:33:40.616Z,4.80
2022-10-01T14:38:49.426Z,7.28
2022-10-01T14:43:54.301Z,6.75
2022-10-01T14:49:00.977Z,5.43
2022-10-01T14:54:04.783Z,5.55
2022-10-01T14:59:17.070Z,5.63
2022-10-01T15:04:28.321Z,5.50
2022-10-01T15:09:34.144Z,10.63
2022-10-01T15:14:37.119Z,5.63
2022-10-01T15:19:47.090Z,22.27
2022-10-01T15:24:50.548Z,5.22
2022-10-01T15:29:56.694Z,8.52
2022-10-01T15:35:02.161Z,6.63
2022-10-01T15:40:13.176Z,7.78
2022-10-01T15:45:26.058Z,9.95
2022-10-01T15:50:37.071Z,6.38
2022-10-01T15:55:50.712Z,5.57
2022-10-01T16:01:09.334Z,9.43
2022-10-01T16:06:23.982Z,7.65
2022-10-01T16:11:31.843Z,6.95
2022-10-01T16:16:33.770Z,9.10
2022-10-01T16:21:40.790Z,6.10
2022-10-01T16:26:43.561Z,6.25
2022-10-01T16:31:45.614Z,8.75
2022-10-01T16:36:47.565Z,11.73
2022-10-01T16:42:06.264Z,8.27
2022-10-01T16:47:12.602Z,9.32
2022-10-01T16:52:16.620Z,10.07
2022-10-01T16:57:18.350Z,8.02
2022-10-01T17:02:20.005Z,8.38
2022-10-01T17:07:21.719Z,7.88
2022-10-01T17:12:23.330Z,6.95
2022-10-01T17:17:24.934Z,12.50
2022-10-01T17:22:26.597Z,17.88
2022-10-01T17:27:28.241Z,8.75
2022-10-01T17:32:29.924Z,11.07
2022-10-01T17:37:31.725Z,8.65
2022-10-01T17:42:35.544Z,7.82
2022-10-01T17:47:42.041Z,10.45
2022-10-01T17:52:48.590Z,7.40
2022-10-01T17:57:52.200Z,9.50
2022-10-01T18:02:54.001Z,13.10
2022-10-01T18:07:55.639Z,9.15
2022-10-01T18:13:09.354Z,7.32
2022-10-01T18:19:51.229Z,11.45
2022-10-01T18:23:33.462Z,7.90
2022-10-01T18:28:35.164Z,10.02
2022-10-01T18:33:45.920Z,7.35
2022-10-01T18:38:52.645Z,8.80
2022-10-01T18:43:54.343Z,9.70
2022-10-01T18:49:31.477Z,10.95
2022-10-01T18:54:57.666Z,11.20
2022-10-01T18:59:59.255Z,10.18
2022-10-01T19:05:29.704Z,13.75
2022-10-01T19:11:07.034Z,15.63
2022-10-01T19:16:26.919Z,10.27
2022-10-01T19:21:52.710Z,11.48
2022-10-01T19:27:22.381Z,16.65
2022-10-01T19:32:45.523Z,12.50
2022-10-01T19:38:26.317Z,7.80
2022-10-01T19:43:38.066Z,10.02
2022-10-01T19:48:51.914Z,13.27
2022-10-01T19:54:00.243Z,11.90
2022-10-01T19:59:11.010Z,14.40
2022-10-01T20:09:38.748Z,11.63
2022-10-01T20:15:09.027Z,14.13
2022-10-01T20:20:23.503Z,15.95
2022-10-01T20:25:44.658Z,19.85
2022-10-01T20:36:12.011Z,13.57
2022-10-01T20:41:16.908Z,17.58
2022-10-01T20:46:35.322Z,10.27
2022-10-01T20:51:53.093Z,12.48
2022-10-01T20:57:21.259Z,14.52
2022-10-01T21:02:28.849Z,13.32
2022-10-01T21:07:36.521Z,13.57
2022-10-01T21:12:44.669Z,14.25
2022-10-01T21:18:11.325Z,14.07
2022-10-01T21:23:25.178Z,14.18
2022-10-01T21:28:29.755Z,12.75
2022-10-01T21:33:44.370Z,10.98
2022-10-01T21:39:00.210Z,10.40
2022-10-01T21:44:33.365Z,12.32
2022-10-01T21:49:57.432Z,12.60
2022-10-01T21:55:17.800Z,14.63
2022-10-01T22:00:24.894Z,8.37
2022-10-01T22:05:38.046Z,10.07
2022-10-01T22:10:45.818Z,13.45
2022-10-01T22:15:52.427Z,13.07
2022-10-01T22:20:56.370Z,9.77
2022-10-01T22:26:03.702Z,11.65
2022-10-01T22:31:10.884Z,13.68
2022-10-01T22:36:18.260Z,8.77
2022-10-01T22:41:31.559Z,10.93
2022-10-01T22:47:19.273Z,9.38
2022-10-01T22:52:33.237Z,11.82
2022-10-01T22:57:53.082Z,12.55
2022-10-01T23:03:13.480Z,13.65
2022-10-01T23:08:32.375Z,10.43
2022-10-01T23:13:33.943Z,14.07
2022-10-01T23:18:57.494Z,13.55
2022-10-01T23:24:18.093Z,10.23
2022-10-01T23:29:45.989Z,12.15
2022-10-01T23:35:04.517Z,14.65
2022-10-01T23:40:11.411Z,12.73
2022-10-01T23:45:24.137Z,12.25
2022-10-01T23:50:39.950Z,16.48
2022-10-01T23:56:08.750Z,20.77
